Time;durP1;ratioP1;P1;durP2;ratioP2;P2;SDS_P1;SDS_P2;PMS_P1;PMS_P2;Temp;Humidity;BMP_temperature;BMP_pressure;BME280_temperature;BME280_humidity;BME280_pressure;Samples;Min_cycle;Max_cycle;Signal;HPM_P1;HPM_P2
2022/04/28 00:01:08;;;;;;;7.12;4.68;;;;;;;14.33;68.41;100300.41;4397059;32;32718;-85
2022/04/28 00:03:38;;;;;;;6.18;4.35;;;;;;;14.47;67.88;100300.56;4404174;32;34220;-85
2022/04/28 00:06:06;;;;;;;5.82;3.92;;;;;;;14.17;68.69;100303.00;4403516;32;33937;-84
2022/04/28 00:08:34;;;;;;;6.55;4.55;;;;;;;14.10;69.13;100298.94;4403696;32;33909;-84
2022/04/28 00:11:02;;;;;;;6.15;4.55;;;;;;;14.21;69.01;100287.78;4396231;32;34566;-84
2022/04/28 00:13:30;;;;;;;6.65;4.82;;;;;;;14.39;68.00;100297.47;4391145;32;33654;-85
2022/04/28 00:15:57;;;;;;;6.45;4.10;;;;;;;14.34;68.09;100294.19;4398510;32;33908;-85
2022/04/28 00:18:26;;;;;;;4.93;4.07;;;;;;;14.24;68.22;100298.22;4397436;32;33450;-85
2022/04/28 00:21:07;;;;;;;7.87;4.45;;;;;;;13.99;69.26;100299.47;4403795;32;33367;-84
2022/04/28 00:23:35;;;;;;;4.60;4.12;;;;;;;13.77;70.26;100304.13;4391948;32;34924;-84
2022/04/28 00:26:04;;;;;;;5.07;4.28;;;;;;;13.77;70.44;100307.66;4393172;32;33928;-84
2022/04/28 00:28:32;;;;;;;9.50;5.28;;;;;;;13.91;69.89;100296.34;4403340;32;32809;-84
2022/04/28 00:31:00;;;;;;;4.72;4.22;;;;;;;13.81;70.35;100289.75;4390100;32;33316;-84
2022/04/28 00:33:34;;;;;;;5.70;4.37;;;;;;;13.95;70.00;100297.03;4391290;32;33987;-84
2022/04/28 00:36:02;;;;;;;5.62;4.68;;;;;;;13.79;70.35;100292.50;4390995;32;32812;-84
2022/04/28 00:38:30;;;;;;;5.20;4.03;;;;;;;14.22;68.30;100298.31;4390582;32;32790;-85
2022/04/28 00:41:00;;;;;;;6.90;4.40;;;;;;;14.18;68.43;100293.22;4404140;32;33387;-86
2022/04/28 00:43:29;;;;;;;5.65;4.25;;;;;;;14.23;68.09;100299.16;4379312;32;33494;-86
2022/04/28 00:45:59;;;;;;;6.18;4.40;;;;;;;14.11;68.21;100298.00;4379380;32;34418;-86
2022/04/28 00:51:14;;;;;;;6.18;4.87;;;;;;;13.91;69.31;100301.66;4397427;32;34640;-85
2022/04/28 00:53:49;;;;;;;6.35;4.50;;;;;;;14.07;68.39;100302.59;4402440;32;34492;-85
2022/04/28 00:56:23;;;;;;;10.63;4.62;;;;;;;13.63;69.99;100301.28;4385861;32;33130;-85
2022/04/28 00:58:54;;;;;;;4.78;3.90;;;;;;;13.64;70.04;100303.00;4403636;32;34285;-85
2022/04/28 01:01:22;;;;;;;8.27;5.05;;;;;;;13.98;68.81;100305.72;4379071;32;32938;-85
2022/04/28 01:03:53;;;;;;;5.28;4.28;;;;;;;13.80;68.88;100299.50;4393487;32;33452;-85
2022/04/28 01:06:21;;;;;;;5.35;4.18;;;;;;;13.99;68.31;100304.78;4404028;32;32707;-85
2022/04/28 01:08:50;;;;;;;5.68;4.35;;;;;;;13.84;68.83;100294.91;4403902;32;33823;-85
2022/04/28 01:11:19;;;;;;;5.90;4.82;;;;;;;13.50;70.20;100304.53;4400924;32;34658;-86
2022/04/28 01:13:47;;;;;;;5.45;4.90;;;;;;;13.92;68.61;100291.91;4390781;32;33178;-85
2022/04/28 01:16:19;;;;;;;4.60;4.00;;;;;;;13.60;69.48;100299.62;4403463;32;33808;-85
2022/04/28 01:18:46;;;;;;;7.00;4.80;;;;;;;13.74;69.14;100293.66;4391329;32;33982;-87
2022/04/28 01:21:14;;;;;;;5.30;4.45;;;;;;;13.74;69.01;100296.31;4383263;32;32639;-86
2022/04/28 01:23:42;;;;;;;6.25;5.07;;;;;;;13.82;68.60;100287.03;4382299;32;33993;-85
2022/04/28 01:26:13;;;;;;;6.32;4.87;;;;;;;13.88;68.35;100285.88;4397157;32;33689;-85
2022/04/28 01:28:40;;;;;;;8.05;5.00;;;;;;;13.60;69.78;100288.16;4398001;32;34080;-85
2022/04/28 01:31:09;;;;;;;4.65;3.97;;;;;;;13.94;68.19;100280.25;4400660;32;33122;-85
2022/04/28 01:33:37;;;;;;;6.05;4.32;;;;;;;13.80;68.74;100285.38;4396464;32;34618;-85
2022/04/28 01:36:09;;;;;;;6.45;5.05;;;;;;;13.69;69.17;100283.25;4390457;32;33465;-85
2022/04/28 01:38:37;;;;;;;7.65;5.65;;;;;;;13.64;69.48;100287.09;4402882;32;32729;-85
2022/04/28 01:41:05;;;;;;;8.50;5.07;;;;;;;13.69;69.38;100279.75;4403117;32;33926;-85
2022/04/28 01:43:33;;;;;;;8.70;5.37;;;;;;;13.88;68.42;100285.88;4392373;32;33044;-85
2022/04/28 01:46:01;;;;;;;7.87;4.93;;;;;;;13.85;68.44;100283.34;4392327;32;33525;-84
2022/04/28 01:48:31;;;;;;;7.00;4.85;;;;;;;13.68;69.05;100278.91;4392119;32;34725;-84
2022/04/28 01:56:33;;;;;;;6.82;4.72;;;;;;;13.64;69.19;100279.97;4393500;32;33796;-87
2022/04/28 01:59:03;;;;;;;5.65;4.95;;;;;;;13.42;70.18;100285.44;4405367;32;32039;-87
2022/04/28 02:01:32;;;;;;;5.70;4.35;;;;;;;13.42;70.34;100281.94;4393203;32;34180;-86
2022/04/28 02:04:00;;;;;;;5.37;3.92;;;;;;;13.55;70.02;100288.37;4396954;32;33876;-84
2022/04/28 02:06:29;;;;;;;7.22;4.55;;;;;;;13.53;69.95;100293.78;4397851;32;33618;-84
2022/04/28 02:08:59;;;;;;;6.47;4.97;;;;;;;13.54;69.91;100303.44;4403576;32;31832;-84
2022/04/28 02:11:32;;;;;;;7.37;4.72;;;;;;;13.36;70.52;100288.41;4392094;32;34011;-84
2022/04/28 02:14:01;;;;;;;7.07;5.00;;;;;;;13.56;69.83;100284.78;4397629;32;34324;-84
2022/04/28 02:16:32;;;;;;;7.07;5.07;;;;;;;13.46;70.00;100294.13;4386986;32;32572;-84
2022/04/28 02:19:01;;;;;;;7.28;5.22;;;;;;;13.46;69.86;100292.31;4383122;32;31720;-84
2022/04/28 02:21:29;;;;;;;8.13;5.55;;;;;;;13.51;69.80;100292.09;4395394;32;33918;-84
2022/04/28 02:23:57;;;;;;;6.95;5.15;;;;;;;13.66;69.11;100282.53;4379668;32;33616;-84
2022/04/28 02:26:25;;;;;;;5.75;4.12;;;;;;;13.62;69.34;100278.31;4385738;32;33765;-85
2022/04/28 02:28:59;;;;;;;7.97;4.37;;;;;;;13.55;69.46;100275.97;4399524;32;32668;-85
2022/04/28 02:31:28;;;;;;;5.95;4.25;;;;;;;13.63;69.19;100272.09;4379716;32;32575;-85
2022/04/28 02:33:56;;;;;;;7.37;4.72;;;;;;;13.68;68.85;100276.25;4383776;32;33382;-85
2022/04/28 02:36:24;;;;;;;5.97;4.70;;;;;;;13.59;69.07;100274.03;4392228;32;33984;-85
2022/04/28 02:38:52;;;;;;;5.55;4.57;;;;;;;13.52;69.22;100269.94;4392290;32;33644;-86
2022/04/28 02:41:21;;;;;;;7.22;5.43;;;;;;;13.57;69.05;100276.75;4391427;32;34560;-86
2022/04/28 02:43:49;;;;;;;6.65;4.80;;;;;;;13.59;68.89;100274.03;4385975;32;33354;-86
2022/04/28 02:46:18;;;;;;;5.60;4.15;;;;;;;13.57;68.90;100278.53;4406623;32;34474;-87
2022/04/28 02:48:47;;;;;;;5.05;3.78;;;;;;;13.74;68.30;100278.59;4379615;32;33331;-87
2022/04/28 02:51:15;;;;;;;8.18;5.28;;;;;;;13.52;68.70;100272.59;4388461;32;33562;-86
2022/04/28 02:53:44;;;;;;;10.05;5.18;;;;;;;13.53;68.72;100279.62;4398571;32;33963;-86
2022/04/28 02:56:11;;;;;;;8.18;5.18;;;;;;;13.66;68.34;100278.09;4392165;32;33159;-86
2022/04/28 02:58:39;;;;;;;5.97;4.70;;;;;;;13.58;68.53;100275.84;4397321;32;32159;-86
2022/04/28 03:01:07;;;;;;;6.03;4.60;;;;;;;13.36;69.14;100280.44;4394757;32;33768;-86
2022/04/28 03:03:35;;;;;;;7.87;5.75;;;;;;;13.41;69.12;100275.78;4391781;32;33125;-86
2022/04/28 03:11:36;;;;;;;6.00;4.45;;;;;;;13.41;68.93;100281.06;4381467;32;34070;-88
2022/04/28 03:14:06;;;;;;;6.80;5.45;;;;;;;13.55;68.51;100277.75;4404365;32;32744;-88
2022/04/28 03:16:35;;;;;;;11.10;5.93;;;;;;;13.45;68.98;100284.44;4391851;32;33236;-87
2022/04/28 03:19:05;;;;;;;5.40;4.60;;;;;;;13.54;68.54;100276.91;4379722;32;33626;-87
2022/04/28 03:21:34;;;;;;;6.15;4.97;;;;;;;13.48;68.76;100287.81;4391836;32;34036;-85
2022/04/28 03:24:04;;;;;;;8.18;5.68;;;;;;;13.42;68.42;100285.44;4391461;32;33266;-85
2022/04/28 03:26:33;;;;;;;7.62;4.97;;;;;;;13.50;68.36;100285.94;4391275;32;32368;-85
2022/04/28 03:29:03;;;;;;;6.62;5.22;;;;;;;13.30;68.94;100294.00;4395185;32;32724;-85
2022/04/28 03:31:31;;;;;;;6.82;5.25;;;;;;;13.47;68.45;100288.72;4391443;32;33194;-86
2022/04/28 03:34:09;;;;;;;6.35;4.87;;;;;;;13.40;68.62;100297.94;4398110;32;33840;-87
2022/04/28 03:36:52;;;;;;;7.50;4.85;;;;;;;13.44;68.42;100296.84;4379325;32;34511;-86
2022/04/28 03:39:21;;;;;;;7.00;5.22;;;;;;;13.41;68.35;100298.78;4397794;32;32151;-86
2022/04/28 03:41:48;;;;;;;8.65;5.87;;;;;;;13.45;68.17;100293.25;4391378;32;33624;-86
2022/04/28 03:44:16;;;;;;;6.93;5.43;;;;;;;13.36;68.47;100299.00;4398694;32;33652;-84
2022/04/28 03:46:44;;;;;;;6.93;4.50;;;;;;;13.47;68.18;100301.16;4404125;32;33081;-84
2022/04/28 03:49:12;;;;;;;7.45;4.95;;;;;;;13.31;68.43;100303.66;4397148;32;34037;-85
2022/04/28 03:51:40;;;;;;;6.87;5.10;;;;;;;13.23;68.77;100308.47;4404105;32;33798;-85
2022/04/28 03:54:09;;;;;;;9.15;5.95;;;;;;;13.10;69.17;100312.56;4403902;32;34880;-85
2022/04/28 03:56:37;;;;;;;7.68;5.57;;;;;;;13.30;68.49;100310.78;4391567;32;33931;-85
2022/04/28 03:59:05;;;;;;;7.07;5.22;;;;;;;13.23;68.77;100311.13;4391819;32;33003;-85
2022/04/28 04:01:35;;;;;;;10.88;5.60;;;;;;;13.22;68.78;100318.22;4397579;32;33817;-85
2022/04/28 04:04:06;;;;;;;9.02;5.80;;;;;;;13.38;68.29;100318.34;4403293;32;34650;-87
2022/04/28 04:06:36;;;;;;;7.45;5.40;;;;;;;13.50;67.82;100324.87;4377689;32;33428;-86
2022/04/28 04:09:08;;;;;;;7.35;6.12;;;;;;;13.58;67.24;100317.44;4391833;32;33337;-84
2022/04/28 04:11:42;;;;;;;6.90;4.90;;;;;;;13.57;67.22;100324.50;4391858;32;33920;-84
2022/04/28 04:14:11;;;;;;;11.68;6.35;;;;;;;13.47;67.44;100323.22;4392417;32;34044;-84
2022/04/28 04:16:41;;;;;;;6.80;5.35;;;;;;;13.39;68.13;100321.84;4404389;32;33633;-84
2022/04/28 04:19:10;;;;;;;8.20;5.43;;;;;;;13.29;68.48;100330.28;4399131;32;34628;-84
2022/04/28 04:21:39;;;;;;;6.45;5.05;;;;;;;13.54;67.58;100322.00;4411153;32;33506;-83
2022/04/28 04:24:07;;;;;;;6.75;5.15;;;;;;;13.53;67.41;100327.38;4404046;32;34114;-83
2022/04/28 04:26:36;;;;;;;6.00;4.55;;;;;;;13.49;67.75;100334.63;4403278;32;33901;-84
2022/04/28 04:29:05;;;;;;;6.55;4.95;;;;;;;13.79;66.12;100324.34;4402717;32;33156;-85
2022/04/28 04:34:23;;;;;;;5.45;4.32;;;;;;;13.35;68.02;100328.25;4390471;32;33872;-85
2022/04/28 04:36:51;;;;;;;7.62;4.45;;;;;;;13.46;67.47;100326.81;4402450;32;30751;-87
2022/04/28 04:39:22;;;;;;;6.95;5.10;;;;;;;13.26;68.54;100327.75;4392502;32;34014;-85
2022/04/28 04:41:50;;;;;;;6.35;5.05;;;;;;;13.40;68.24;100326.25;4389516;32;33531;-87
2022/04/28 04:44:20;;;;;;;6.43;4.30;;;;;;;13.28;68.62;100332.97;4390492;32;34468;-86
2022/04/28 04:46:48;;;;;;;5.87;4.65;;;;;;;13.37;68.27;100332.56;4378161;32;33671;-87
2022/04/28 04:49:23;;;;;;;6.47;4.32;;;;;;;13.21;68.74;100326.22;4402478;32;32793;-84
2022/04/28 04:51:52;;;;;;;7.28;4.87;;;;;;;13.42;68.17;100325.22;4390529;32;34661;-84
2022/04/28 04:54:24;;;;;;;6.28;4.93;;;;;;;13.49;67.60;100339.94;4389562;32;33908;-84
2022/04/28 04:56:52;;;;;;;7.00;4.93;;;;;;;13.32;68.19;100335.41;4394387;32;33638;-86
2022/04/28 04:59:20;;;;;;;6.07;4.87;;;;;;;13.22;68.83;100338.56;4377831;32;33201;-88
2022/04/28 05:01:49;;;;;;;8.70;5.18;;;;;;;13.41;68.26;100342.09;4390768;32;33358;-85
2022/04/28 05:04:24;;;;;;;7.62;5.05;;;;;;;13.38;68.65;100346.66;4402356;32;33198;-85
2022/04/28 05:06:54;;;;;;;6.70;5.12;;;;;;;13.44;68.58;100344.59;4390753;32;32567;-86
2022/04/28 05:09:23;;;;;;;6.78;5.07;;;;;;;13.60;68.26;100344.75;4390575;32;32346;-85
2022/04/28 05:11:59;;;;;;;8.52;5.95;;;;;;;13.56;68.75;100340.50;4394785;32;34717;-85
2022/04/28 05:14:30;;;;;;;7.50;5.32;;;;;;;13.69;68.28;100354.06;4382307;32;33305;-85
2022/04/28 05:17:00;;;;;;;7.45;5.57;;;;;;;13.64;69.06;100351.63;4399761;32;33193;-84
2022/04/28 05:19:31;;;;;;;7.93;5.75;;;;;;;13.94;68.03;100349.28;4389380;32;30947;-85
2022/04/28 05:22:01;;;;;;;7.15;5.43;;;;;;;13.77;68.14;100347.44;4391958;32;32484;-83
2022/04/28 05:24:34;;;;;;;7.60;5.22;;;;;;;13.70;68.66;100355.78;4388132;32;32265;-85
2022/04/28 05:27:10;;;;;;;7.78;5.12;;;;;;;13.61;69.06;100361.50;4399785;32;33878;-85
2022/04/28 05:29:39;;;;;;;7.65;5.20;;;;;;;13.89;68.28;100361.91;4382166;32;31394;-85
2022/04/28 05:32:07;;;;;;;6.93;5.05;;;;;;;13.79;68.39;100361.50;4399282;32;34929;-84
2022/04/28 05:34:36;;;;;;;12.27;5.60;;;;;;;14.02;67.68;100357.72;4392412;32;33633;-85
2022/04/28 05:37:07;;;;;;;7.25;4.78;;;;;;;14.03;67.77;100363.91;4402795;32;33496;-85
2022/04/28 05:39:38;;;;;;;7.43;5.22;;;;;;;14.03;68.18;100364.75;4382041;32;34023;-85
2022/04/28 05:42:08;;;;;;;;;;;;;;;14.11;68.05;100371.50;4395594;32;34524;-85
2022/04/28 05:47:24;;;;;;;8.23;5.20;;;;;;;14.16;68.07;100361.50;4390344;32;33347;-85
2022/04/28 05:49:53;;;;;;;7.93;5.10;;;;;;;14.31;67.75;100369.56;4398304;32;32559;-86
2022/04/28 05:52:24;;;;;;;6.85;5.28;;;;;;;14.31;67.82;100380.19;4395102;32;34577;-85
2022/04/28 05:54:53;;;;;;;7.97;6.03;;;;;;;14.15;68.19;100373.94;4388970;32;33412;-85
2022/04/28 05:57:23;;;;;;;6.45;4.80;;;;;;;14.21;68.08;100380.72;4400625;32;33233;-85
2022/04/28 05:59:54;;;;;;;6.50;4.97;;;;;;;14.40;67.28;100373.56;4402128;32;32285;-85
2022/04/28 06:02:25;;;;;;;8.55;5.97;;;;;;;14.39;67.61;100376.31;4402890;32;33141;-86
2022/04/28 06:07:43;;;;;;;7.32;5.32;;;;;;;14.51;67.43;100381.88;4404218;32;34367;-86
2022/04/28 06:10:16;;;;;;;6.37;5.03;;;;;;;14.30;67.38;100382.94;4393090;32;33237;-86
2022/04/28 06:12:48;;;;;;;6.22;4.65;;;;;;;14.45;67.26;100381.31;4390311;32;34258;-86
2022/04/28 06:15:19;;;;;;;6.57;5.03;;;;;;;14.73;66.42;100375.47;4402908;32;33274;-86
2022/04/28 06:17:47;;;;;;;8.05;5.55;;;;;;;14.80;66.20;100382.19;4403684;32;33641;-86
2022/04/28 06:20:17;;;;;;;7.12;5.07;;;;;;;14.96;65.47;100388.44;4388903;32;32672;-86
2022/04/28 06:22:48;;;;;;;6.78;5.50;;;;;;;14.78;65.94;100394.69;4389538;32;32768;-86
2022/04/28 06:25:17;;;;;;;6.55;5.20;;;;;;;14.87;65.99;100394.22;4400292;32;34485;-86
2022/04/28 06:27:54;;;;;;;6.25;4.72;;;;;;;14.72;66.10;100398.53;4378894;32;33130;-86
2022/04/28 06:30:23;;;;;;;5.55;3.97;;;;;;;14.98;65.92;100394.53;4388487;32;33885;-85
2022/04/28 06:32:53;;;;;;;5.90;3.78;;;;;;;15.11;65.36;100390.28;4388100;32;34531;-86
2022/04/28 06:35:26;;;;;;;5.60;4.57;;;;;;;15.24;65.41;100395.81;4386588;32;33957;-87
2022/04/28 06:37:58;;;;;;;6.20;4.65;;;;;;;15.30;64.10;100398.12;4401750;32;33865;-84
2022/04/28 06:40:26;;;;;;;7.00;5.00;;;;;;;15.34;64.30;100391.72;4380766;32;32829;-86
2022/04/28 06:42:55;;;;;;;5.75;4.50;;;;;;;15.28;64.00;100393.81;4403313;32;33638;-83
2022/04/28 06:45:37;;;;;;;6.68;4.47;;;;;;;15.30;63.21;100398.12;4392355;32;32458;-83
2022/04/28 06:48:14;;;;;;;6.78;4.78;;;;;;;15.28;63.12;100394.69;4373261;32;33092;-86
2022/04/28 06:50:51;;;;;;;5.65;4.25;;;;;;;15.29;63.31;100395.56;4395858;32;36914;-85
2022/04/28 06:56:00;;;;;;;4.65;3.75;;;;;;;15.42;63.66;100398.41;4389063;32;33052;-85
2022/04/28 06:58:32;;;;;;;5.78;4.05;;;;;;;15.26;64.96;100395.72;4375909;32;34094;-85
2022/04/28 07:01:02;;;;;;;5.28;3.90;;;;;;;15.33;63.69;100394.44;4401453;32;33115;-86
2022/04/28 07:03:31;;;;;;;5.68;3.90;;;;;;;15.55;62.83;100400.31;4400175;32;33294;-85
2022/04/28 07:05:59;;;;;;;7.47;4.07;;;;;;;15.40;62.36;100402.97;4397102;32;33405;-85
2022/04/28 07:08:27;;;;;;;7.43;4.80;;;;;;;15.60;62.64;100400.94;4401455;32;34370;-85
2022/04/28 07:11:06;;;;;;;11.00;4.87;;;;;;;15.49;61.56;100392.69;4388914;32;32583;-85
2022/04/28 07:13:39;;;;;;;6.65;5.03;;;;;;;15.61;61.56;100399.13;4400448;32;33279;-85
2022/04/28 07:16:19;;;;;;;9.82;5.03;;;;;;;15.41;62.76;100394.03;4387466;32;34446;-86
2022/04/28 07:18:50;;;;;;;6.12;4.68;;;;;;;15.39;63.28;100407.44;4387127;32;32440;-85
2022/04/28 07:21:19;;;;;;;6.50;5.03;;;;;;;15.29;62.13;100396.44;4388177;32;33062;-86
2022/04/28 07:23:48;;;;;;;5.90;4.40;;;;;;;15.36;63.26;100403.13;4387502;32;34659;-86
2022/04/28 07:26:17;;;;;;;7.37;5.00;;;;;;;15.33;63.52;100407.75;4388852;32;33112;-86
2022/04/28 07:28:45;;;;;;;6.78;5.15;;;;;;;15.29;64.07;100409.72;4400324;32;34158;-85
2022/04/28 07:31:18;;;;;;;7.97;5.85;;;;;;;15.32;63.72;100411.34;4399928;32;34044;-86
2022/04/28 07:33:50;;;;;;;10.00;5.30;;;;;;;15.51;63.09;100417.41;4400365;32;33587;-86
2022/04/28 07:36:27;;;;;;;6.12;4.82;;;;;;;15.75;62.56;100407.22;4387370;32;33248;-86
2022/04/28 07:39:12;;;;;;;6.65;4.40;;;;;;;15.52;64.09;100419.09;4398922;32;34379;-86
2022/04/28 07:41:48;;;;;;;12.02;5.45;;;;;;;15.57;64.00;100417.09;4400241;32;33520;-87
2022/04/28 07:44:17;;;;;;;6.68;4.85;;;;;;;15.76;62.64;100416.06;4374955;32;32871;-86
2022/04/28 07:46:48;;;;;;;10.15;5.10;;;;;;;15.64;64.89;100417.63;4390757;32;31695;-86
2022/04/28 07:49:17;;;;;;;5.43;4.70;;;;;;;15.53;65.30;100418.19;4393295;32;33111;-86
2022/04/28 07:51:45;;;;;;;6.18;4.22;;;;;;;15.91;63.99;100419.72;4388715;32;32705;-86
2022/04/28 07:54:17;;;;;;;7.03;5.62;;;;;;;15.79;62.31;100423.91;4391808;32;33211;-86
2022/04/28 07:56:48;;;;;;;12.55;5.62;;;;;;;16.10;61.54;100425.72;4400067;32;33088;-86
2022/04/28 07:59:22;;;;;;;5.85;4.90;;;;;;;16.39;60.68;100424.06;4399920;32;34676;-86
2022/04/28 08:01:55;;;;;;;7.37;4.40;;;;;;;16.71;57.40;100415.97;4387837;32;33206;-86
2022/04/28 08:04:24;;;;;;;5.57;4.32;;;;;;;16.91;57.41;100421.03;4400414;32;30585;-87
2022/04/28 08:06:56;;;;;;;5.65;4.05;;;;;;;16.90;57.46;100419.28;4399429;32;34205;-87
2022/04/28 08:09:25;;;;;;;7.95;2.72;;;;;;;17.38;54.61;100411.94;4389369;32;33477;-87
2022/04/28 08:11:55;;;;;;;2.97;2.35;;;;;;;17.55;50.07;100419.72;4400799;32;33129;-87
2022/04/28 08:14:25;;;;;;;2.10;1.67;;;;;;;17.54;49.07;100418.00;4388704;32;33456;-87
2022/04/28 08:16:55;;;;;;;2.00;1.80;;;;;;;17.64;48.89;100415.63;4399843;32;34305;-87
2022/04/28 08:19:23;;;;;;;6.60;2.37;;;;;;;17.90;49.72;100428.22;4400670;32;33716;-87
2022/04/28 08:21:52;;;;;;;4.25;2.80;;;;;;;17.97;50.52;100426.00;4387184;32;32333;-87
2022/04/28 08:24:21;;;;;;;5.10;4.57;;;;;;;17.93;52.97;100435.16;4399447;32;33897;-87
2022/04/28 08:26:49;;;;;;;5.32;4.53;;;;;;;17.59;53.83;100437.28;4399516;32;33884;-87
2022/04/28 08:29:22;;;;;;;5.37;4.65;;;;;;;17.58;54.55;100434.69;4400471;32;34386;-87
2022/04/28 08:31:52;;;;;;;5.82;4.47;;;;;;;17.92;54.20;100438.78;4400072;32;32744;-88
2022/04/28 08:34:22;;;;;;;6.45;4.30;;;;;;;18.03;53.00;100436.28;4400680;32;33952;-85
2022/04/28 08:36:51;;;;;;;8.98;4.93;;;;;;;17.97;54.38;100446.50;4387393;32;34302;-85
2022/04/28 08:39:21;;;;;;;4.68;4.22;;;;;;;17.85;52.26;100437.44;4403678;32;32440;-87
2022/04/28 08:41:49;;;;;;;6.47;3.78;;;;;;;17.97;53.49;100434.00;4388682;32;33870;-88
2022/04/28 08:44:26;;;;;;;4.78;3.85;;;;;;;17.96;53.59;100429.63;4383147;32;34095;-85
2022/04/28 08:46:54;;;;;;;4.03;3.40;;;;;;;18.29;51.51;100431.94;4401781;32;33860;-85
2022/04/28 08:49:30;;;;;;;7.90;3.25;;;;;;;18.42;50.71;100438.19;4390983;32;33290;-85
2022/04/28 08:51:59;;;;;;;4.15;3.75;;;;;;;18.84;48.00;100430.06;4390890;32;32623;-85
2022/04/28 08:54:29;;;;;;;4.75;3.92;;;;;;;18.36;52.84;100440.37;4400311;32;34290;-85
2022/04/28 08:57:02;;;;;;;5.18;4.00;;;;;;;18.48;52.36;100436.06;4392969;32;33032;-85
2022/04/28 08:59:31;;;;;;;4.62;3.97;;;;;;;18.83;50.63;100439.91;4382148;32;33841;-85
2022/04/28 09:02:00;;;;;;;5.35;4.15;;;;;;;18.48;52.86;100436.06;4405241;32;33130;-85
2022/04/28 09:04:39;;;;;;;4.37;3.85;;;;;;;18.31;54.38;100445.19;4392308;32;33141;-86
2022/04/28 09:07:12;;;;;;;4.37;3.75;;;;;;;18.64;51.69;100450.13;4404644;32;34050;-86
2022/04/28 09:09:46;;;;;;;5.90;4.15;;;;;;;18.78;48.78;100443.87;4392671;32;32923;-85
2022/04/28 09:12:29;;;;;;;4.85;3.85;;;;;;;18.72;51.09;100450.50;4388988;32;32305;-85
2022/04/28 09:15:11;;;;;;;6.93;4.40;;;;;;;18.79;50.48;100448.25;4392801;32;34186;-86
2022/04/28 09:17:41;;;;;;;8.52;6.55;;;;;;;18.30;54.09;100454.16;4385787;32;33759;-85
2022/04/28 09:20:15;;;;;;;7.18;5.50;;;;;;;18.81;50.47;100443.69;4392784;32;33493;-85
2022/04/28 09:25:21;;;;;;;8.02;5.28;;;;;;;18.64;51.77;100444.78;4396898;32;33484;-85
2022/04/28 09:27:51;;;;;;;6.47;5.00;;;;;;;18.66;52.14;100441.03;4404822;32;34267;-85
2022/04/28 09:30:22;;;;;;;7.75;6.30;;;;;;;18.45;53.37;100458.50;4393047;32;34387;-85
2022/04/28 09:32:54;;;;;;;6.12;5.30;;;;;;;18.56;50.29;100456.00;4392683;32;32423;-85
2022/04/28 09:35:52;;;;;;;7.97;4.78;;;;;;;18.58;50.68;100448.72;4404467;32;33173;-85
2022/04/28 09:38:23;;;;;;;8.23;5.22;;;;;;;18.34;53.10;100450.34;4389133;32;34188;-85
2022/04/28 09:44:02;;;;;;;7.35;5.70;;;;;;;18.55;50.61;100456.94;4397783;32;33346;-85
2022/04/28 09:46:42;;;;;;;8.68;4.85;;;;;;;18.71;51.67;100453.28;4404231;32;35631;-85
2022/04/28 09:49:20;;;;;;;8.18;5.35;;;;;;;18.77;51.01;100456.41;4397704;32;33593;-85
2022/04/28 09:51:57;;;;;;;8.40;5.62;;;;;;;18.58;49.44;100456.75;4391444;32;33806;-85
2022/04/28 09:54:28;;;;;;;6.60;5.47;;;;;;;18.95;49.22;100454.31;4392605;32;33136;-85
2022/04/28 09:56:59;;;;;;;5.93;4.80;;;;;;;19.05;50.51;100452.72;4404571;32;35209;-85
2022/04/28 09:59:28;;;;;;;6.25;4.72;;;;;;;19.08;49.13;100457.81;4405265;32;33701;-85
2022/04/28 10:01:58;;;;;;;6.57;4.55;;;;;;;19.28;48.63;100452.94;4392454;32;33677;-85
2022/04/28 10:04:29;;;;;;;6.72;4.10;;;;;;;19.18;49.05;100456.25;4404775;32;33966;-85
2022/04/28 10:07:01;;;;;;;8.68;4.80;;;;;;;19.65;48.63;100452.09;4404461;32;34741;-85
2022/04/28 10:12:24;;;;;;;5.68;4.18;;;;;;;19.60;46.03;100448.00;4394584;32;32934;-85
2022/04/28 10:14:58;;;;;;;4.72;4.05;;;;;;;19.58;49.23;100444.56;4388300;32;33363;-85
2022/04/28 10:17:33;;;;;;;6.50;3.97;;;;;;;19.90;45.57;100451.19;4399071;32;33958;-85
2022/04/28 10:20:09;;;;;;;6.65;3.42;;;;;;;19.79;46.10;100450.25;4393494;32;34683;-85
2022/04/28 10:23:05;;;;;;;;;;;;;;;19.66;46.33;100458.31;4395946;32;33687;-85
2022/04/28 10:35:15;;;;;;;4.03;2.70;;;;;;;19.74;41.39;100444.34;4400066;32;33491;-84
2022/04/28 10:37:45;;;;;;;2.47;2.12;;;;;;;19.80;38.65;100442.12;4376588;32;33302;-85
2022/04/28 10:40:16;;;;;;;2.73;2.43;;;;;;;19.93;37.81;100444.75;4398141;32;33932;-85
2022/04/28 10:42:47;;;;;;;;;;;;;;;19.81;38.71;100456.38;4396560;32;33679;-85
2022/04/28 10:45:25;;;;;;;5.53;2.30;;;;;;;19.66;38.51;100448.47;4392119;32;34573;-85
2022/04/28 10:51:19;;;;;;;4.18;2.80;;;;;;;19.82;40.48;100447.34;4392324;32;33550;-85
2022/04/28 10:54:07;;;;;;;3.92;2.60;;;;;;;20.05;39.24;100449.22;4404183;32;33861;-85
2022/04/28 10:56:42;;;;;;;;;;;;;;;20.11;38.11;100448.78;4385969;32;33260;-85
2022/04/28 10:59:25;;;;;;;5.97;3.40;;;;;;;20.02;38.27;100443.22;4404529;32;33636;-85
2022/04/28 11:02:21;;;;;;;5.80;4.28;;;;;;;19.71;44.40;100448.13;4404625;32;32862;-85
2022/04/28 11:05:35;;;;;;;4.68;3.55;;;;;;;19.74;44.69;100445.22;4391407;32;33769;-85
2022/04/28 11:08:05;;;;;;;5.68;5.03;;;;;;;20.09;43.35;100449.88;4399852;32;34516;-85
2022/04/28 11:11:01;;;;;;;9.48;4.43;;;;;;;20.22;42.28;100447.97;4395979;32;33139;-85
2022/04/28 11:13:31;;;;;;;4.45;3.72;;;;;;;20.44;42.87;100455.31;4400500;32;34695;-85
2022/04/28 11:16:02;;;;;;;5.35;3.92;;;;;;;20.30;42.88;100458.16;4403794;32;33802;-86
2022/04/28 11:18:31;;;;;;;4.93;3.97;;;;;;;20.09;42.48;100457.91;4392516;32;33901;-85
2022/04/28 11:21:03;;;;;;;4.47;3.95;;;;;;;20.07;41.66;100449.97;4404720;32;32173;-85
2022/04/28 11:23:40;;;;;;;4.22;3.33;;;;;;;19.89;44.12;100459.31;4403929;32;34361;-86
2022/04/28 11:26:18;;;;;;;3.67;3.28;;;;;;;20.10;43.53;100457.78;4390161;32;33822;-87
2022/04/28 11:28:46;;;;;;;3.92;3.08;;;;;;;20.47;42.07;100457.81;4379169;32;33485;-85
2022/04/28 11:31:19;;;;;;;7.20;3.45;;;;;;;20.36;40.89;100460.37;4397942;32;33220;-85
2022/04/28 11:33:55;;;;;;;5.10;2.78;;;;;;;20.15;40.45;100466.34;4396086;32;33518;-85
2022/04/28 11:36:27;;;;;;;4.10;3.33;;;;;;;20.04;40.54;100477.00;4398164;32;33865;-85
2022/04/28 11:39:08;;;;;;;4.18;3.10;;;;;;;20.21;40.85;100460.53;4402281;32;33526;-85
2022/04/28 11:41:42;;;;;;;2.83;2.40;;;;;;;19.78;45.29;100468.16;4391023;32;32223;-85
2022/04/28 11:44:17;;;;;;;6.12;2.90;;;;;;;20.26;42.00;100475.44;4403023;32;32690;-85
2022/04/28 11:46:49;;;;;;;5.03;3.12;;;;;;;20.26;40.61;100473.59;4390519;32;32915;-85
2022/04/28 11:49:18;;;;;;;7.80;3.85;;;;;;;20.18;41.74;100473.34;4393119;32;32876;-85
2022/04/28 11:51:48;;;;;;;4.70;3.87;;;;;;;19.81;43.46;100477.81;4390585;32;32617;-85
2022/04/28 11:54:20;;;;;;;3.95;3.33;;;;;;;19.87;42.17;100474.69;4396202;32;33968;-84
2022/04/28 11:56:48;;;;;;;3.87;2.83;;;;;;;19.90;44.37;100471.78;4384076;32;33141;-85
2022/04/28 11:59:22;;;;;;;5.40;3.40;;;;;;;20.13;43.07;100470.09;4397155;32;33478;-85
2022/04/28 12:02:06;;;;;;;4.28;2.83;;;;;;;20.33;40.45;100468.66;4396430;32;33042;-85
2022/04/28 12:04:41;;;;;;;3.17;2.78;;;;;;;20.33;39.85;100474.03;4390281;32;34678;-85
2022/04/28 12:07:22;;;;;;;5.93;3.35;;;;;;;20.40;39.95;100467.22;4388790;32;33675;-85
2022/04/28 12:21:24;;;;;;;2.85;2.50;;;;;;;20.64;39.81;100454.69;4397254;32;34114;-85
2022/04/28 12:23:57;;;;;;;3.62;2.65;;;;;;;20.14;42.54;100474.50;4399344;32;32794;-85
2022/04/28 12:26:32;;;;;;;2.87;2.55;;;;;;;20.71;39.49;100464.00;4391772;32;32893;-85
2022/04/28 12:29:11;;;;;;;3.37;2.65;;;;;;;20.38;41.63;100466.50;4398438;32;34245;-85
2022/04/28 12:31:46;;;;;;;4.37;2.95;;;;;;;20.44;39.57;100469.56;4374754;32;33923;-86
2022/04/28 12:34:20;;;;;;;4.30;2.65;;;;;;;20.59;38.56;100464.91;4388048;32;31742;-85
2022/04/28 12:36:52;;;;;;;5.97;2.67;;;;;;;20.20;41.86;100468.69;4386182;32;32605;-85
2022/04/28 12:39:53;;;;;;;2.45;2.12;;;;;;;20.55;39.35;100458.06;4383624;32;32436;-85
2022/04/28 12:42:23;;;;;;;4.60;2.70;;;;;;;20.57;38.50;100466.03;4387655;32;34104;-85
2022/04/28 12:44:52;;;;;;;2.85;2.25;;;;;;;20.37;37.08;100456.75;4399001;32;33275;-85